createdAt,value
2022-11-24T00:00:50.924Z,99419
2022-11-24T00:06:47.006Z,99432
2022-11-24T00:12:37.633Z,99434
2022-11-24T00:18:29.071Z,99435
2022-11-24T00:24:19.750Z,99435
2022-11-24T00:30:09.105Z,99429
2022-11-24T00:36:06.336Z,99426
2022-11-24T00:41:57.625Z,99429
2022-11-24T00:48:07.240Z,99436
2022-11-24T01:01:00.569Z,99453
2022-11-24T01:07:09.892Z,99453
2022-11-24T01:13:26.230Z,99472
2022-11-24T01:26:02.501Z,99481
2022-11-24T01:32:44.119Z,99488
2022-11-24T01:45:41.101Z,99512
2022-11-24T01:58:32.609Z,99503
2022-11-24T02:04:41.859Z,99510
2022-11-24T02:10:53.771Z,99504
2022-11-24T02:17:22.510Z,99509
2022-11-24T02:23:46.807Z,99517
2022-11-24T02:36:23.131Z,99527
2022-11-24T02:42:37.663Z,99539
2022-11-24T02:48:29.924Z,99539
2022-11-24T03:01:13.933Z,99532
2022-11-24T03:07:32.466Z,99519
2022-11-24T03:13:42.489Z,99521
2022-11-24T03:26:23.676Z,99523
2022-11-24T03:32:51.717Z,99530
2022-11-24T03:39:00.184Z,99535
2022-11-24T03:45:53.969Z,99549
2022-11-24T03:51:46.964Z,99555
2022-11-24T03:57:58.441Z,99553
2022-11-24T04:04:16.726Z,99542
2022-11-24T04:10:19.924Z,99549
2022-11-24T04:16:43.534Z,99563
2022-11-24T04:22:43.780Z,99568
2022-11-24T04:28:39.017Z,99579
2022-11-24T04:34:39.663Z,99581
2022-11-24T04:40:38.577Z,99579
2022-11-24T04:46:34.261Z,99588
2022-11-24T04:52:26.096Z,99598
2022-11-24T04:58:17.095Z,99607
2022-11-24T05:04:09.959Z,99607
2022-11-24T05:10:06.081Z,99608
2022-11-24T05:15:59.897Z,99619
2022-11-24T05:21:53.565Z,99621
2022-11-24T05:27:56.940Z,99621
2022-11-24T05:34:00.907Z,99625
2022-11-24T05:40:29.836Z,99633
2022-11-24T05:53:04.002Z,99641
2022-11-24T05:59:13.978Z,99658
2022-11-24T06:11:50.883Z,99674
2022-11-24T06:53:03.426Z,99718
2022-11-24T07:06:03.676Z,99729
2022-11-24T07:24:43.444Z,99781
2022-11-24T07:31:12.393Z,99769
2022-11-24T07:37:20.122Z,99799
2022-11-24T07:43:47.525Z,99807
2022-11-24T07:50:07.808Z,99815
2022-11-24T07:56:34.699Z,99824
2022-11-24T08:15:22.321Z,99855
2022-11-24T08:21:33.074Z,99857
2022-11-24T08:27:28.469Z,99868
2022-11-24T08:33:35.347Z,99881
2022-11-24T08:39:31.593Z,99879
2022-11-24T08:45:36.713Z,99884
2022-11-24T08:51:42.770Z,99892
2022-11-24T08:57:38.904Z,99901
2022-11-24T09:03:30.049Z,99911
2022-11-24T09:09:40.563Z,99921
2022-11-24T09:15:59.230Z,99936
2022-11-24T09:27:59.671Z,99937
2022-11-24T09:34:12.984Z,99949
2022-11-24T09:40:06.870Z,99968
2022-11-24T09:52:28.122Z,99993
2022-11-24T10:05:20.342Z,99993
2022-11-24T10:18:47.059Z,100000
2022-11-24T10:24:57.285Z,100009
2022-11-24T10:31:17.392Z,100018
2022-11-24T10:37:37.231Z,100023
2022-11-24T10:43:48.513Z,100022
2022-11-24T10:49:50.162Z,100028
2022-11-24T11:02:01.558Z,100042
2022-11-24T11:08:30.132Z,100046
2022-11-24T11:14:53.656Z,100042
2022-11-24T11:21:37.508Z,100053
2022-11-24T11:27:44.094Z,100052
2022-11-24T11:46:05.242Z,100063
2022-11-24T11:58:52.536Z,100065
2022-11-24T12:23:28.765Z,100067
2022-11-24T12:30:10.886Z,100062
2022-11-24T12:36:06.301Z,100065
2022-11-24T13:00:25.117Z,100051
2022-11-24T13:06:16.355Z,100049
2022-11-24T13:12:09.006Z,100056
2022-11-24T13:18:30.439Z,100064
2022-11-24T13:24:36.039Z,100072
2022-11-24T13:30:33.440Z,100069
2022-11-24T13:36:32.780Z,100075
2022-11-24T13:42:50.915Z,100064
2022-11-24T13:48:51.495Z,100078
2022-11-24T13:54:46.868Z,100089
2022-11-24T14:00:52.964Z,100084
2022-11-24T14:37:41.010Z,100092
2022-11-24T14:43:59.150Z,100099
2022-11-24T15:08:40.204Z,100098
2022-11-24T15:14:44.708Z,100106
2022-11-24T15:20:39.336Z,100118
2022-11-24T15:26:45.623Z,100129
2022-11-24T15:32:37.898Z,100138
2022-11-24T15:38:28.744Z,100138
2022-11-24T15:44:20.057Z,100131
2022-11-24T15:50:07.941Z,100129
2022-11-24T15:55:58.423Z,100128
2022-11-24T16:01:53.217Z,100125
2022-11-24T16:07:42.200Z,100131
2022-11-24T16:13:32.663Z,100155
2022-11-24T16:19:21.834Z,100154
2022-11-24T16:25:12.119Z,100161
2022-11-24T16:31:02.886Z,100156
2022-11-24T16:36:53.653Z,100157
2022-11-24T16:42:45.447Z,100151
2022-11-24T16:48:38.394Z,100152
2022-11-24T16:54:28.607Z,100155
2022-11-24T17:00:25.396Z,100151
2022-11-24T17:06:17.880Z,100156
2022-11-24T17:12:09.536Z,100154
2022-11-24T17:18:27.419Z,100138
2022-11-24T17:24:17.938Z,100153
2022-11-24T17:30:13.346Z,100160
2022-11-24T17:36:03.944Z,100171
2022-11-24T17:41:54.965Z,100174
2022-11-24T17:47:53.557Z,100180
2022-11-24T17:53:48.209Z,100177
2022-11-24T17:59:42.331Z,100188
2022-11-24T18:05:43.917Z,100192
2022-11-24T18:11:37.382Z,100191
2022-11-24T18:17:30.126Z,100194
2022-11-24T18:23:23.074Z,100190
2022-11-24T18:29:15.796Z,100177
2022-11-24T18:35:05.496Z,100177
2022-11-24T18:40:56.204Z,100175
2022-11-24T18:46:46.715Z,100175
2022-11-24T18:52:37.595Z,100166
2022-11-24T18:58:26.163Z,100164
2022-11-24T19:04:15.402Z,100160
2022-11-24T19:10:05.550Z,100150
2022-11-24T19:15:56.014Z,100145
2022-11-24T19:21:46.629Z,100154
2022-11-24T19:27:35.432Z,100159
2022-11-24T19:33:26.545Z,100146
2022-11-24T19:39:19.237Z,100155
2022-11-24T19:45:08.356Z,100165
2022-11-24T19:50:59.332Z,100166
2022-11-24T19:56:52.253Z,100157
2022-11-24T20:02:42.816Z,100163
2022-11-24T20:08:33.551Z,100168
2022-11-24T20:14:23.643Z,100170
2022-11-24T20:20:12.676Z,100175
2022-11-24T20:26:02.420Z,100182
2022-11-24T20:31:53.249Z,100173
2022-11-24T20:37:44.321Z,100183
2022-11-24T20:43:44.826Z,100173
2022-11-24T20:49:35.840Z,100167
2022-11-24T20:55:26.065Z,100160
2022-11-24T21:01:20.090Z,100167
2022-11-24T21:07:10.787Z,100159
2022-11-24T21:13:01.646Z,100170
2022-11-24T21:18:52.063Z,100170
2022-11-24T21:24:42.137Z,100172
2022-11-24T21:30:33.320Z,100160
2022-11-24T21:36:24.140Z,100163
2022-11-24T21:42:15.835Z,100166
2022-11-24T21:48:06.799Z,100164
2022-11-24T21:53:57.903Z,100149
2022-11-24T21:59:49.686Z,100142
2022-11-24T22:05:40.358Z,100140
2022-11-24T22:11:30.758Z,100151
2022-11-24T22:17:19.826Z,100147
2022-11-24T22:23:10.924Z,100144
2022-11-24T22:29:02.053Z,100148
2022-11-24T22:34:53.021Z,100146
2022-11-24T22:40:43.192Z,100138
2022-11-24T22:46:33.355Z,100141
2022-11-24T22:52:24.480Z,100140
2022-11-24T22:58:15.027Z,100140
2022-11-24T23:04:06.328Z,100139
2022-11-24T23:10:03.679Z,100135
2022-11-24T23:15:53.975Z,100132
2022-11-24T23:21:46.017Z,100133
2022-11-24T23:27:36.877Z,100115
2022-11-24T23:33:28.236Z,100110
2022-11-24T23:39:21.202Z,100118
2022-11-24T23:45:12.529Z,100120
2022-11-24T23:51:06.277Z,100125
2022-11-24T23:56:59.639Z,100121
